sensor_id;sensor_type;location;lat;lon;timestamp;pressure;altitude;pressure_sealevel;temperature;humidity
53514;BME280;39768;54.148;12.174;2024-02-26T00:01:08;100325.28;;;0.97;51.19
53514;BME280;39768;54.148;12.174;2024-02-26T00:05:10;100314.69;;;0.97;51.75
53514;BME280;39768;54.148;12.174;2024-02-26T00:09:12;100301.44;;;0.97;51.65
53514;BME280;39768;54.148;12.174;2024-02-26T00:13:14;100316.41;;;1.00;51.07
53514;BME280;39768;54.148;12.174;2024-02-26T00:17:16;100320.28;;;0.80;50.91
53514;BME280;39768;54.148;12.174;2024-02-26T00:21:18;100322.53;;;1.03;50.41
53514;BME280;39768;54.148;12.174;2024-02-26T00:25:20;100325.47;;;0.88;52.06
53514;BME280;39768;54.148;12.174;2024-02-26T00:29:22;100329.88;;;0.89;51.67
53514;BME280;39768;54.148;12.174;2024-02-26T00:33:24;100326.97;;;0.50;52.31
53514;BME280;39768;54.148;12.174;2024-02-26T00:37:26;100322.25;;;0.69;53.96
53514;BME280;39768;54.148;12.174;2024-02-26T00:41:29;100322.13;;;0.77;53.92
53514;BME280;39768;54.148;12.174;2024-02-26T00:45:31;100329.72;;;0.44;53.06
53514;BME280;39768;54.148;12.174;2024-02-26T00:49:33;100336.25;;;0.20;54.26
53514;BME280;39768;54.148;12.174;2024-02-26T00:53:35;100317.44;;;0.40;53.47
53514;BME280;39768;54.148;12.174;2024-02-26T00:57:37;100321.97;;;0.32;53.91
53514;BME280;39768;54.148;12.174;2024-02-26T01:01:39;100324.47;;;0.41;53.38
53514;BME280;39768;54.148;12.174;2024-02-26T01:05:41;100321.00;;;0.36;53.28
53514;BME280;39768;54.148;12.174;2024-02-26T01:09:43;100322.72;;;0.40;52.55
53514;BME280;39768;54.148;12.174;2024-02-26T01:13:45;100321.59;;;-0.02;56.48
53514;BME280;39768;54.148;12.174;2024-02-26T01:17:48;100330.22;;;0.68;53.86
53514;BME280;39768;54.148;12.174;2024-02-26T01:21:50;100332.56;;;0.86;52.08
53514;BME280;39768;54.148;12.174;2024-02-26T01:26:11;100342.88;;;0.50;51.97
53514;BME280;39768;54.148;12.174;2024-02-26T01:30:13;100334.91;;;-0.09;54.49
53514;BME280;39768;54.148;12.174;2024-02-26T01:34:18;100345.59;;;0.46;52.72
53514;BME280;39768;54.148;12.174;2024-02-26T01:38:20;100344.56;;;0.56;52.49
53514;BME280;39768;54.148;12.174;2024-02-26T01:42:22;100344.78;;;0.42;51.92
53514;BME280;39768;54.148;12.174;2024-02-26T01:46:24;100334.56;;;0.18;52.22
53514;BME280;39768;54.148;12.174;2024-02-26T01:50:27;100341.25;;;-0.20;53.14
53514;BME280;39768;54.148;12.174;2024-02-26T01:54:29;100341.97;;;-0.08;53.36
53514;BME280;39768;54.148;12.174;2024-02-26T01:58:32;100336.59;;;-0.01;53.31
53514;BME280;39768;54.148;12.174;2024-02-26T02:02:34;100340.22;;;-0.86;56.51
53514;BME280;39768;54.148;12.174;2024-02-26T02:06:36;100342.88;;;-0.84;58.92
53514;BME280;39768;54.148;12.174;2024-02-26T02:10:43;100344.06;;;-0.33;56.88
53514;BME280;39768;54.148;12.174;2024-02-26T02:14:45;100341.75;;;-0.62;56.44
53514;BME280;39768;54.148;12.174;2024-02-26T02:18:47;100348.75;;;-0.57;56.88
53514;BME280;39768;54.148;12.174;2024-02-26T02:22:50;100343.94;;;-0.24;56.23
53514;BME280;39768;54.148;12.174;2024-02-26T02:27:11;100345.34;;;-0.69;55.83
53514;BME280;39768;54.148;12.174;2024-02-26T02:31:15;100349.41;;;-0.39;55.04
53514;BME280;39768;54.148;12.174;2024-02-26T02:35:18;100345.13;;;-0.48;55.70
53514;BME280;39768;54.148;12.174;2024-02-26T02:39:20;100348.84;;;-0.66;55.60
53514;BME280;39768;54.148;12.174;2024-02-26T02:43:22;100347.81;;;-1.44;58.85
53514;BME280;39768;54.148;12.174;2024-02-26T02:47:24;100347.41;;;-2.21;62.71
53514;BME280;39768;54.148;12.174;2024-02-26T02:51:27;100357.88;;;-0.90;58.95
53514;BME280;39768;54.148;12.174;2024-02-26T02:55:29;100366.47;;;-0.65;57.88
53514;BME280;39768;54.148;12.174;2024-02-26T02:59:31;100362.63;;;-0.36;56.36
53514;BME280;39768;54.148;12.174;2024-02-26T03:03:33;100367.28;;;-0.57;56.27
53514;BME280;39768;54.148;12.174;2024-02-26T03:07:36;100360.03;;;-0.41;55.39
53514;BME280;39768;54.148;12.174;2024-02-26T03:11:38;100365.97;;;-1.05;57.98
53514;BME280;39768;54.148;12.174;2024-02-26T03:15:42;100360.06;;;-0.44;57.13
53514;BME280;39768;54.148;12.174;2024-02-26T03:19:45;100360.66;;;-0.21;55.31
53514;BME280;39768;54.148;12.174;2024-02-26T03:23:55;100364.00;;;-0.08;53.80
53514;BME280;39768;54.148;12.174;2024-02-26T03:27:57;100374.75;;;-0.19;53.11
53514;BME280;39768;54.148;12.174;2024-02-26T03:31:59;100368.81;;;-0.39;53.22
53514;BME280;39768;54.148;12.174;2024-02-26T03:36:01;100368.75;;;-0.31;53.39
53514;BME280;39768;54.148;12.174;2024-02-26T03:40:04;100375.56;;;-0.12;52.17
53514;BME280;39768;54.148;12.174;2024-02-26T03:44:06;100372.41;;;-0.41;52.36
53514;BME280;39768;54.148;12.174;2024-02-26T03:48:08;100373.22;;;-0.39;52.53
53514;BME280;39768;54.148;12.174;2024-02-26T03:52:10;100380.91;;;-0.17;52.07
53514;BME280;39768;54.148;12.174;2024-02-26T03:56:12;100382.66;;;-0.14;51.66
53514;BME280;39768;54.148;12.174;2024-02-26T04:00:17;100385.69;;;-0.49;51.50
53514;BME280;39768;54.148;12.174;2024-02-26T04:04:23;100385.13;;;-0.81;53.13
53514;BME280;39768;54.148;12.174;2024-02-26T04:08:25;100389.88;;;-1.22;53.72
53514;BME280;39768;54.148;12.174;2024-02-26T04:12:28;100396.09;;;-1.27;53.53
53514;BME280;39768;54.148;12.174;2024-02-26T04:16:30;100392.53;;;-1.22;53.85
53514;BME280;39768;54.148;12.174;2024-02-26T04:20:32;100400.56;;;-1.35;55.48
53514;BME280;39768;54.148;12.174;2024-02-26T04:24:36;100397.97;;;-1.43;56.74
53514;BME280;39768;54.148;12.174;2024-02-26T04:28:38;100405.75;;;-1.26;55.39
53514;BME280;39768;54.148;12.174;2024-02-26T04:32:40;100410.25;;;-1.37;56.92
53514;BME280;39768;54.148;12.174;2024-02-26T04:36:42;100417.84;;;-0.93;55.04
53514;BME280;39768;54.148;12.174;2024-02-26T04:40:44;100414.53;;;-1.19;56.29
53514;BME280;39768;54.148;12.174;2024-02-26T04:44:46;100418.16;;;-1.31;56.01
53514;BME280;39768;54.148;12.174;2024-02-26T04:48:48;100418.44;;;-1.80;57.69
53514;BME280;39768;54.148;12.174;2024-02-26T04:52:51;100424.00;;;-0.94;55.08
53514;BME280;39768;54.148;12.174;2024-02-26T04:56:52;100434.59;;;-0.96;54.49
53514;BME280;39768;54.148;12.174;2024-02-26T05:00:54;100438.22;;;-1.07;54.29
53514;BME280;39768;54.148;12.174;2024-02-26T05:04:57;100432.47;;;-0.54;53.78
53514;BME280;39768;54.148;12.174;2024-02-26T05:08:59;100437.06;;;-0.74;52.49
53514;BME280;39768;54.148;12.174;2024-02-26T05:13:00;100452.91;;;-0.73;54.20
53514;BME280;39768;54.148;12.174;2024-02-26T05:17:03;100453.63;;;-0.53;52.14
53514;BME280;39768;54.148;12.174;2024-02-26T05:21:05;100461.63;;;-0.60;52.80
53514;BME280;39768;54.148;12.174;2024-02-26T05:25:07;100469.81;;;-0.92;53.00
53514;BME280;39768;54.148;12.174;2024-02-26T05:29:10;100476.97;;;-1.05;52.27
53514;BME280;39768;54.148;12.174;2024-02-26T05:33:15;100480.34;;;-0.84;51.99
53514;BME280;39768;54.148;12.174;2024-02-26T05:37:19;100484.78;;;-0.88;52.32
53514;BME280;39768;54.148;12.174;2024-02-26T05:41:21;100495.59;;;-1.25;52.45
53514;BME280;39768;54.148;12.174;2024-02-26T05:45:27;100490.81;;;-2.51;58.07
53514;BME280;39768;54.148;12.174;2024-02-26T05:49:30;100497.59;;;-1.68;56.47
53514;BME280;39768;54.148;12.174;2024-02-26T05:53:33;100511.72;;;-1.81;54.02
53514;BME280;39768;54.148;12.174;2024-02-26T05:57:34;100529.03;;;-1.22;53.79
53514;BME280;39768;54.148;12.174;2024-02-26T06:01:36;100523.53;;;-0.86;53.04
53514;BME280;39768;54.148;12.174;2024-02-26T06:05:40;100536.72;;;-0.82;52.36
53514;BME280;39768;54.148;12.174;2024-02-26T06:09:42;100546.50;;;-0.95;53.42
53514;BME280;39768;54.148;12.174;2024-02-26T06:13:45;100542.06;;;-0.87;52.86
53514;BME280;39768;54.148;12.174;2024-02-26T06:17:48;100551.06;;;-1.25;53.35
53514;BME280;39768;54.148;12.174;2024-02-26T06:21:50;100540.75;;;-1.79;56.68
53514;BME280;39768;54.148;12.174;2024-02-26T06:25:52;100553.03;;;-1.68;57.26
53514;BME280;39768;54.148;12.174;2024-02-26T06:29:54;100563.31;;;-1.04;54.15
53514;BME280;39768;54.148;12.174;2024-02-26T06:33:58;100566.03;;;-1.21;54.18
53514;BME280;39768;54.148;12.174;2024-02-26T06:38:00;100576.28;;;-0.67;53.99
53514;BME280;39768;54.148;12.174;2024-02-26T06:42:02;100569.53;;;-1.14;55.19
53514;BME280;39768;54.148;12.174;2024-02-26T06:46:05;100577.13;;;-0.59;53.36
53514;BME280;39768;54.148;12.174;2024-02-26T06:50:08;100583.78;;;-1.47;55.79
53514;BME280;39768;54.148;12.174;2024-02-26T06:54:10;100588.94;;;-1.18;56.69
53514;BME280;39768;54.148;12.174;2024-02-26T06:58:12;100588.94;;;-1.21;56.47
53514;BME280;39768;54.148;12.174;2024-02-26T07:02:15;100591.44;;;-0.95;56.20
53514;BME280;39768;54.148;12.174;2024-02-26T07:06:18;100607.78;;;-0.35;55.13
53514;BME280;39768;54.148;12.174;2024-02-26T07:10:20;100604.09;;;-0.11;54.90
53514;BME280;39768;54.148;12.174;2024-02-26T07:14:22;100612.16;;;-0.27;55.96
53514;BME280;39768;54.148;12.174;2024-02-26T07:18:26;100616.47;;;-0.17;55.87
53514;BME280;39768;54.148;12.174;2024-02-26T07:22:28;100610.59;;;0.40;53.33
53514;BME280;39768;54.148;12.174;2024-02-26T07:26:30;100620.88;;;0.67;53.52
53514;BME280;39768;54.148;12.174;2024-02-26T07:30:33;100615.19;;;0.24;53.53
53514;BME280;39768;54.148;12.174;2024-02-26T07:34:51;100620.97;;;-0.25;55.79
53514;BME280;39768;54.148;12.174;2024-02-26T07:38:53;100611.59;;;-0.79;60.47
53514;BME280;39768;54.148;12.174;2024-02-26T07:42:56;100606.94;;;-0.39;57.64
53514;BME280;39768;54.148;12.174;2024-02-26T07:46:58;100607.63;;;-0.12;59.00
53514;BME280;39768;54.148;12.174;2024-02-26T07:51:01;100604.84;;;0.03;58.66
53514;BME280;39768;54.148;12.174;2024-02-26T07:55:05;100611.16;;;-0.12;56.92
53514;BME280;39768;54.148;12.174;2024-02-26T07:59:08;100612.91;;;-0.11;58.16
53514;BME280;39768;54.148;12.174;2024-02-26T08:03:13;100612.50;;;0.29;57.00
53514;BME280;39768;54.148;12.174;2024-02-26T08:07:17;100610.13;;;0.04;60.75
53514;BME280;39768;54.148;12.174;2024-02-26T08:11:22;100619.47;;;0.36;60.81
53514;BME280;39768;54.148;12.174;2024-02-26T08:15:24;100629.06;;;1.18;56.44
53514;BME280;39768;54.148;12.174;2024-02-26T08:19:26;100638.13;;;2.18;51.92
53514;BME280;39768;54.148;12.174;2024-02-26T08:23:29;100638.56;;;1.92;52.34
53514;BME280;39768;54.148;12.174;2024-02-26T08:27:32;100650.53;;;2.18;51.65
53514;BME280;39768;54.148;12.174;2024-02-26T08:31:34;100648.44;;;1.84;52.75
53514;BME280;39768;54.148;12.174;2024-02-26T08:35:47;100645.91;;;2.74;50.25
53514;BME280;39768;54.148;12.174;2024-02-26T08:39:49;100646.06;;;2.20;52.64
53514;BME280;39768;54.148;12.174;2024-02-26T08:43:51;100657.22;;;1.31;56.41
53514;BME280;39768;54.148;12.174;2024-02-26T08:47:53;100664.59;;;2.24;53.75
53514;BME280;39768;54.148;12.174;2024-02-26T08:51:57;100679.28;;;2.91;51.24
53514;BME280;39768;54.148;12.174;2024-02-26T08:55:59;100676.69;;;2.42;53.65
53514;BME280;39768;54.148;12.174;2024-02-26T09:00:04;100674.28;;;2.73;54.56
53514;BME280;39768;54.148;12.174;2024-02-26T09:04:06;100682.00;;;3.31;52.64
53514;BME280;39768;54.148;12.174;2024-02-26T09:08:09;100678.13;;;2.11;57.37
53514;BME280;39768;54.148;12.174;2024-02-26T09:12:11;100679.41;;;1.85;59.39
53514;BME280;39768;54.148;12.174;2024-02-26T09:16:13;100680.22;;;1.90;61.45
53514;BME280;39768;54.148;12.174;2024-02-26T09:20:15;100686.78;;;1.68;60.79
53514;BME280;39768;54.148;12.174;2024-02-26T09:24:18;100690.59;;;2.04;61.53
53514;BME280;39768;54.148;12.174;2024-02-26T09:28:20;100690.75;;;2.47;60.53
53514;BME280;39768;54.148;12.174;2024-02-26T09:32:27;100691.28;;;2.15;60.64
53514;BME280;39768;54.148;12.174;2024-02-26T09:36:43;100709.22;;;3.83;55.84
53514;BME280;39768;54.148;12.174;2024-02-26T09:40:45;100708.94;;;3.95;55.38
53514;BME280;39768;54.148;12.174;2024-02-26T09:44:51;100711.19;;;3.34;55.31
53514;BME280;39768;54.148;12.174;2024-02-26T09:48:54;100710.63;;;2.26;63.52
53514;BME280;39768;54.148;12.174;2024-02-26T09:53:01;100714.06;;;2.31;64.39
53514;BME280;39768;54.148;12.174;2024-02-26T09:57:09;100716.06;;;3.56;61.11
53514;BME280;39768;54.148;12.174;2024-02-26T10:01:18;100712.50;;;3.94;58.82
53514;BME280;39768;54.148;12.174;2024-02-26T10:05:20;100708.03;;;4.65;55.03
53514;BME280;39768;54.148;12.174;2024-02-26T10:09:24;100708.66;;;3.30;60.03
53514;BME280;39768;54.148;12.174;2024-02-26T10:13:27;100715.34;;;4.91;55.57
53514;BME280;39768;54.148;12.174;2024-02-26T10:17:29;100717.63;;;4.72;56.15
53514;BME280;39768;54.148;12.174;2024-02-26T10:21:33;100727.47;;;5.34;53.83
53514;BME280;39768;54.148;12.174;2024-02-26T10:25:35;100728.13;;;5.11;53.65
53514;BME280;39768;54.148;12.174;2024-02-26T10:29:37;100730.06;;;5.37;53.12
53514;BME280;39768;54.148;12.174;2024-02-26T10:33:40;100748.53;;;6.30;49.28
53514;BME280;39768;54.148;12.174;2024-02-26T10:37:59;100743.25;;;5.10;49.25
53514;BME280;39768;54.148;12.174;2024-02-26T10:42:02;100745.41;;;4.98;49.97
53514;BME280;39768;54.148;12.174;2024-02-26T10:46:08;100748.09;;;4.96;50.84
53514;BME280;39768;54.148;12.174;2024-02-26T10:50:12;100747.47;;;5.19;52.17
53514;BME280;39768;54.148;12.174;2024-02-26T10:54:15;100749.78;;;4.68;54.78
53514;BME280;39768;54.148;12.174;2024-02-26T10:58:21;100764.34;;;5.81;51.22
53514;BME280;39768;54.148;12.174;2024-02-26T11:02:24;100767.94;;;6.89;47.64
53514;BME280;39768;54.148;12.174;2024-02-26T11:06:26;100766.19;;;5.79;49.12
53514;BME280;39768;54.148;12.174;2024-02-26T11:10:31;100776.44;;;7.02;47.61
53514;BME280;39768;54.148;12.174;2024-02-26T11:14:33;100774.34;;;7.58;45.94
53514;BME280;39768;54.148;12.174;2024-02-26T11:18:36;100772.50;;;6.87;47.00
53514;BME280;39768;54.148;12.174;2024-02-26T11:22:40;100783.88;;;7.90;44.70
53514;BME280;39768;54.148;12.174;2024-02-26T11:26:50;100771.47;;;5.82;49.18
53514;BME280;39768;54.148;12.174;2024-02-26T11:30:54;100780.53;;;6.87;47.49
53514;BME280;39768;54.148;12.174;2024-02-26T11:34:58;100772.13;;;5.89;49.37
53514;BME280;39768;54.148;12.174;2024-02-26T11:39:11;100785.94;;;6.03;47.36
53514;BME280;39768;54.148;12.174;2024-02-26T11:43:15;100791.19;;;6.62;47.12
53514;BME280;39768;54.148;12.174;2024-02-26T11:47:20;100779.47;;;5.82;48.66
53514;BME280;39768;54.148;12.174;2024-02-26T11:51:25;100779.22;;;5.61;49.59
53514;BME280;39768;54.148;12.174;2024-02-26T11:55:32;100782.59;;;4.71;49.66
53514;BME280;39768;54.148;12.174;2024-02-26T11:59:38;100781.44;;;5.76;49.07
53514;BME280;39768;54.148;12.174;2024-02-26T12:03:40;100782.78;;;5.29;47.69
53514;BME280;39768;54.148;12.174;2024-02-26T12:07:47;100789.97;;;5.27;48.81
53514;BME280;39768;54.148;12.174;2024-02-26T12:11:49;100795.84;;;6.82;46.24
53514;BME280;39768;54.148;12.174;2024-02-26T12:19:53;100790.94;;;6.70;45.63
53514;BME280;39768;54.148;12.174;2024-02-26T12:24:07;100790.03;;;6.96;45.64
53514;BME280;39768;54.148;12.174;2024-02-26T12:28:12;100794.19;;;7.29;45.99
53514;BME280;39768;54.148;12.174;2024-02-26T12:32:15;100796.78;;;5.38;48.05
53514;BME280;39768;54.148;12.174;2024-02-26T12:36:17;100811.94;;;8.03;44.56
53514;BME280;39768;54.148;12.174;2024-02-26T12:40:39;100798.19;;;5.82;48.43
53514;BME280;39768;54.148;12.174;2024-02-26T12:44:45;100802.44;;;6.44;46.99
53514;BME280;39768;54.148;12.174;2024-02-26T12:48:48;100808.69;;;7.72;45.21
53514;BME280;39768;54.148;12.174;2024-02-26T12:52:51;100815.00;;;7.21;45.27
53514;BME280;39768;54.148;12.174;2024-02-26T12:56:53;100813.13;;;5.88;48.87
53514;BME280;39768;54.148;12.174;2024-02-26T13:00:56;100824.22;;;6.61;46.76
53514;BME280;39768;54.148;12.174;2024-02-26T13:04:59;100834.47;;;6.19;45.24
53514;BME280;39768;54.148;12.174;2024-02-26T13:09:04;100836.97;;;6.25;47.32
53514;BME280;39768;54.148;12.174;2024-02-26T13:13:08;100843.31;;;8.01;44.51
53514;BME280;39768;54.148;12.174;2024-02-26T13:17:12;100838.16;;;6.15;46.64
53514;BME280;39768;54.148;12.174;2024-02-26T13:21:16;100847.97;;;6.14;48.13
53514;BME280;39768;54.148;12.174;2024-02-26T13:25:22;100853.88;;;6.53;46.38
53514;BME280;39768;54.148;12.174;2024-02-26T13:29:25;100868.13;;;6.56;46.36
53514;BME280;39768;54.148;12.174;2024-02-26T13:33:30;100864.59;;;6.81;46.16
53514;BME280;39768;54.148;12.174;2024-02-26T13:37:34;100861.50;;;6.94;46.51
53514;BME280;39768;54.148;12.174;2024-02-26T13:41:41;100867.13;;;6.29;47.41
53514;BME280;39768;54.148;12.174;2024-02-26T13:45:46;100873.34;;;6.86;45.79
53514;BME280;39768;54.148;12.174;2024-02-26T13:49:48;100870.34;;;7.47;45.67
53514;BME280;39768;54.148;12.174;2024-02-26T13:53:50;100875.94;;;6.32;47.33
53514;BME280;39768;54.148;12.174;2024-02-26T13:57:52;100876.00;;;6.31;47.34
53514;BME280;39768;54.148;12.174;2024-02-26T14:01:56;100886.09;;;6.78;47.25
53514;BME280;39768;54.148;12.174;2024-02-26T14:05:58;100882.19;;;6.03;48.81
53514;BME280;39768;54.148;12.174;2024-02-26T14:10:01;100882.16;;;6.88;48.31
53514;BME280;39768;54.148;12.174;2024-02-26T14:14:03;100892.38;;;8.26;44.78
53514;BME280;39768;54.148;12.174;2024-02-26T14:18:07;100882.41;;;6.82;49.37
53514;BME280;39768;54.148;12.174;2024-02-26T14:22:13;100899.63;;;8.01;46.59
53514;BME280;39768;54.148;12.174;2024-02-26T14:26:15;100915.00;;;8.88;44.44
53514;BME280;39768;54.148;12.174;2024-02-26T14:30:17;100911.00;;;8.53;45.36
53514;BME280;39768;54.148;12.174;2024-02-26T14:34:20;100895.78;;;6.82;48.64
53514;BME280;39768;54.148;12.174;2024-02-26T14:38:22;100900.22;;;6.83;48.67
53514;BME280;39768;54.148;12.174;2024-02-26T14:42:25;100905.16;;;6.96;49.31
53514;BME280;39768;54.148;12.174;2024-02-26T14:46:28;100912.50;;;6.61;50.62
53514;BME280;39768;54.148;12.174;2024-02-26T14:50:31;100913.28;;;6.93;51.28
53514;BME280;39768;54.148;12.174;2024-02-26T14:54:33;100919.47;;;7.72;48.19
53514;BME280;39768;54.148;12.174;2024-02-26T14:58:39;100929.25;;;7.22;47.59
53514;BME280;39768;54.148;12.174;2024-02-26T15:02:41;100930.63;;;7.34;47.84
53514;BME280;39768;54.148;12.174;2024-02-26T15:06:43;100932.63;;;7.02;48.13
53514;BME280;39768;54.148;12.174;2024-02-26T15:10:47;100949.06;;;7.69;46.32
53514;BME280;39768;54.148;12.174;2024-02-26T15:14:51;100956.28;;;7.67;46.78
53514;BME280;39768;54.148;12.174;2024-02-26T15:18:53;100957.66;;;7.52;46.84
53514;BME280;39768;54.148;12.174;2024-02-26T15:22:55;100960.38;;;7.00;46.78
53514;BME280;39768;54.148;12.174;2024-02-26T15:27:00;100953.75;;;6.83;48.19
53514;BME280;39768;54.148;12.174;2024-02-26T15:31:04;100961.50;;;7.19;47.23
53514;BME280;39768;54.148;12.174;2024-02-26T15:35:10;100966.16;;;6.86;47.99
53514;BME280;39768;54.148;12.174;2024-02-26T15:39:12;100966.63;;;6.12;50.02
53514;BME280;39768;54.148;12.174;2024-02-26T15:43:14;100975.66;;;6.68;49.00
53514;BME280;39768;54.148;12.174;2024-02-26T15:47:20;100979.38;;;6.01;49.72
53514;BME280;39768;54.148;12.174;2024-02-26T15:51:23;100990.28;;;6.26;49.29
53514;BME280;39768;54.148;12.174;2024-02-26T15:55:28;100994.34;;;5.75;51.57
53514;BME280;39768;54.148;12.174;2024-02-26T15:59:31;101003.41;;;6.33;51.05
53514;BME280;39768;54.148;12.174;2024-02-26T16:03:38;100995.84;;;6.78;48.27
53514;BME280;39768;54.148;12.174;2024-02-26T16:07:56;100992.78;;;5.99;50.25
53514;BME280;39768;54.148;12.174;2024-02-26T16:12:12;101010.94;;;6.50;48.13
53514;BME280;39768;54.148;12.174;2024-02-26T16:16:19;101008.97;;;5.95;47.99
53514;BME280;39768;54.148;12.174;2024-02-26T16:20:23;101009.47;;;6.09;48.37
53514;BME280;39768;54.148;12.174;2024-02-26T16:24:30;101015.00;;;5.33;48.99
53514;BME280;39768;54.148;12.174;2024-02-26T16:28:34;101018.13;;;4.78;50.51
53514;BME280;39768;54.148;12.174;2024-02-26T16:32:37;101019.91;;;4.77;51.96
53514;BME280;39768;54.148;12.174;2024-02-26T16:36:39;101035.66;;;5.64;49.29
53514;BME280;39768;54.148;12.174;2024-02-26T16:40:41;101035.59;;;5.65;48.52
53514;BME280;39768;54.148;12.174;2024-02-26T16:44:44;101043.28;;;5.43;48.70
53514;BME280;39768;54.148;12.174;2024-02-26T16:48:46;101044.97;;;5.48;49.58
53514;BME280;39768;54.148;12.174;2024-02-26T16:52:50;101052.91;;;5.12;50.87
53514;BME280;39768;54.148;12.174;2024-02-26T16:56:52;101050.94;;;4.40;51.42
53514;BME280;39768;54.148;12.174;2024-02-26T17:00:54;101055.00;;;4.58;51.18
53514;BME280;39768;54.148;12.174;2024-02-26T17:04:56;101066.41;;;5.44;49.23
53514;BME280;39768;54.148;12.174;2024-02-26T17:08:58;101078.63;;;4.76;50.73
53514;BME280;39768;54.148;12.174;2024-02-26T17:13:02;101084.94;;;5.12;51.06
53514;BME280;39768;54.148;12.174;2024-02-26T17:17:06;101083.34;;;4.65;50.95
53514;BME280;39768;54.148;12.174;2024-02-26T17:21:09;101088.41;;;4.77;50.57
53514;BME280;39768;54.148;12.174;2024-02-26T17:25:12;101089.44;;;4.70;50.82
53514;BME280;39768;54.148;12.174;2024-02-26T17:29:16;101101.63;;;4.38;52.88
53514;BME280;39768;54.148;12.174;2024-02-26T17:33:18;101107.50;;;4.56;52.66
53514;BME280;39768;54.148;12.174;2024-02-26T17:37:20;101113.66;;;4.12;52.38
53514;BME280;39768;54.148;12.174;2024-02-26T17:41:22;101109.91;;;3.73;54.61
53514;BME280;39768;54.148;12.174;2024-02-26T17:45:25;101120.44;;;3.80;54.96
53514;BME280;39768;54.148;12.174;2024-02-26T17:49:28;101118.56;;;3.31;57.51
53514;BME280;39768;54.148;12.174;2024-02-26T17:53:30;101119.72;;;3.12;58.10
53514;BME280;39768;54.148;12.174;2024-02-26T17:57:32;101122.06;;;3.33;58.16
53514;BME280;39768;54.148;12.174;2024-02-26T18:01:33;101135.06;;;3.55;57.07
53514;BME280;39768;54.148;12.174;2024-02-26T18:05:35;101133.59;;;3.34;57.39
53514;BME280;39768;54.148;12.174;2024-02-26T18:09:39;101143.22;;;3.44;56.83
53514;BME280;39768;54.148;12.174;2024-02-26T18:13:41;101146.06;;;3.89;55.50
53514;BME280;39768;54.148;12.174;2024-02-26T18:17:46;101154.19;;;3.78;56.22
53514;BME280;39768;54.148;12.174;2024-02-26T18:21:49;101164.84;;;4.33;54.61
53514;BME280;39768;54.148;12.174;2024-02-26T18:25:51;101179.03;;;4.80;52.27
53514;BME280;39768;54.148;12.174;2024-02-26T18:29:53;101176.50;;;4.74;51.34
53514;BME280;39768;54.148;12.174;2024-02-26T18:33:55;101183.72;;;4.69;50.96
53514;BME280;39768;54.148;12.174;2024-02-26T18:37:57;101187.38;;;4.16;53.54
53514;BME280;39768;54.148;12.174;2024-02-26T18:41:59;101189.56;;;4.41;52.38
53514;BME280;39768;54.148;12.174;2024-02-26T18:46:02;101206.22;;;4.03;52.12
53514;BME280;39768;54.148;12.174;2024-02-26T18:50:05;101217.47;;;4.71;51.25
53514;BME280;39768;54.148;12.174;2024-02-26T18:54:07;101223.59;;;4.29;51.36
53514;BME280;39768;54.148;12.174;2024-02-26T18:58:09;101229.91;;;4.22;53.00
53514;BME280;39768;54.148;12.174;2024-02-26T19:02:11;101234.47;;;4.14;54.49
53514;BME280;39768;54.148;12.174;2024-02-26T19:06:16;101231.38;;;4.41;52.38
53514;BME280;39768;54.148;12.174;2024-02-26T19:10:19;101232.53;;;4.25;51.66
53514;BME280;39768;54.148;12.174;2024-02-26T19:14:21;101239.34;;;4.43;51.30
53514;BME280;39768;54.148;12.174;2024-02-26T19:18:23;101250.25;;;4.29;51.74
53514;BME280;39768;54.148;12.174;2024-02-26T19:22:25;101249.72;;;4.05;52.64
53514;BME280;39768;54.148;12.174;2024-02-26T19:26:27;101257.41;;;2.96;56.43
53514;BME280;39768;54.148;12.174;2024-02-26T19:30:29;101259.50;;;2.62;56.76
53514;BME280;39768;54.148;12.174;2024-02-26T19:34:31;101256.84;;;3.42;54.88
53514;BME280;39768;54.148;12.174;2024-02-26T19:38:33;101250.50;;;2.79;56.29
53514;BME280;39768;54.148;12.174;2024-02-26T19:42:35;101251.88;;;2.26;61.12
53514;BME280;39768;54.148;12.174;2024-02-26T19:46:57;101263.69;;;2.88;58.62
53514;BME280;39768;54.148;12.174;2024-02-26T19:50:59;101253.34;;;2.57;61.44
53514;BME280;39768;54.148;12.174;2024-02-26T19:55:01;101257.38;;;2.99;62.73
53514;BME280;39768;54.148;12.174;2024-02-26T19:59:04;101254.78;;;2.93;61.79
53514;BME280;39768;54.148;12.174;2024-02-26T20:03:07;101254.28;;;2.55;64.55
53514;BME280;39768;54.148;12.174;2024-02-26T20:07:09;101256.69;;;2.81;62.09
53514;BME280;39768;54.148;12.174;2024-02-26T20:11:15;101265.88;;;2.43;63.71
53514;BME280;39768;54.148;12.174;2024-02-26T20:15:18;101263.06;;;2.58;63.51
53514;BME280;39768;54.148;12.174;2024-02-26T20:19:21;101258.50;;;1.67;69.27
53514;BME280;39768;54.148;12.174;2024-02-26T20:23:23;101258.22;;;2.07;67.91
53514;BME280;39768;54.148;12.174;2024-02-26T20:27:26;101270.59;;;2.12;65.70
53514;BME280;39768;54.148;12.174;2024-02-26T20:31:27;101285.59;;;2.15;66.90
53514;BME280;39768;54.148;12.174;2024-02-26T20:35:29;101288.22;;;2.21;68.77
53514;BME280;39768;54.148;12.174;2024-02-26T20:39:32;101290.28;;;1.81;70.20
53514;BME280;39768;54.148;12.174;2024-02-26T20:43:34;101308.69;;;2.07;67.85
53514;BME280;39768;54.148;12.174;2024-02-26T20:47:37;101307.88;;;3.02;64.42
53514;BME280;39768;54.148;12.174;2024-02-26T20:51:59;101315.84;;;3.04;62.69
53514;BME280;39768;54.148;12.174;2024-02-26T20:56:21;101320.19;;;3.86;58.58
53514;BME280;39768;54.148;12.174;2024-02-26T21:00:24;101312.91;;;2.37;63.66
53514;BME280;39768;54.148;12.174;2024-02-26T21:04:26;101316.22;;;2.61;64.44
53514;BME280;39768;54.148;12.174;2024-02-26T21:08:28;101319.63;;;2.85;64.03
53514;BME280;39768;54.148;12.174;2024-02-26T21:12:38;101328.97;;;3.22;59.90